createdAt,value
2019-03-05T00:00:53.557Z,991.37
2019-03-05T00:01:53.572Z,991.3
2019-03-05T00:02:53.588Z,991.37
2019-03-05T00:03:53.604Z,991.34
2019-03-05T00:04:53.620Z,991.36
2019-03-05T00:05:53.635Z,991.43
2019-03-05T00:06:53.651Z,991.34
2019-03-05T00:07:53.667Z,991.36
2019-03-05T00:08:53.683Z,991.45
2019-03-05T00:09:53.699Z,991.39
2019-03-05T00:10:53.715Z,991.31
2019-03-05T00:11:53.731Z,991.35
2019-03-05T00:12:53.746Z,991.37
2019-03-05T00:13:53.762Z,991.4
2019-03-05T00:15:53.794Z,991.39
2019-03-05T00:16:53.811Z,991.39
2019-03-05T00:17:53.825Z,991.42
2019-03-05T00:18:53.842Z,991.39
2019-03-05T00:19:53.856Z,991.36
2019-03-05T00:20:53.874Z,991.32
2019-03-05T00:21:53.889Z,991.37
2019-03-05T00:22:53.906Z,991.38
2019-03-05T00:23:53.920Z,991.42
2019-03-05T00:24:53.936Z,991.43
2019-03-05T00:25:53.954Z,991.34
2019-03-05T00:26:53.969Z,991.4
2019-03-05T00:27:53.985Z,991.33
2019-03-05T00:28:54.000Z,991.34
2019-03-05T00:29:54.016Z,991.38
2019-03-05T00:31:54.047Z,991.48
2019-03-05T00:32:54.068Z,991.4
2019-03-05T00:33:54.080Z,991.35
2019-03-05T00:34:54.095Z,991.35
2019-03-05T00:35:54.111Z,991.38
2019-03-05T00:36:54.127Z,991.43
2019-03-05T00:37:54.147Z,991.43
2019-03-05T00:38:54.159Z,991.45
2019-03-05T00:39:54.275Z,991.37
2019-03-05T00:40:54.190Z,991.5
2019-03-05T00:41:54.208Z,991.46
2019-03-05T00:42:54.222Z,991.43
2019-03-05T00:43:54.240Z,991.53
2019-03-05T00:44:54.254Z,991.53
2019-03-05T00:45:54.269Z,991.47
2019-03-05T00:47:54.302Z,991.47
2019-03-05T00:48:54.322Z,991.47
2019-03-05T00:49:54.333Z,991.56
2019-03-05T00:50:54.349Z,991.55
2019-03-05T00:51:54.366Z,991.47
2019-03-05T00:52:54.381Z,991.56
2019-03-05T00:53:54.397Z,991.47
2019-03-05T00:54:54.413Z,991.52
2019-03-05T00:55:54.429Z,991.55
2019-03-05T00:56:54.444Z,991.46
2019-03-05T00:57:54.460Z,991.5
2019-03-05T00:58:54.478Z,991.45
2019-03-05T00:59:54.498Z,991.58
2019-03-05T01:00:54.510Z,991.44
2019-03-05T01:02:54.542Z,991.51
2019-03-05T01:03:54.560Z,991.48
2019-03-05T01:04:54.573Z,991.59
2019-03-05T01:05:54.589Z,991.56
2019-03-05T01:06:54.605Z,991.56
2019-03-05T01:07:54.621Z,991.49
2019-03-05T01:08:54.637Z,991.63
2019-03-05T01:09:54.656Z,991.5
2019-03-05T01:10:54.671Z,991.58
2019-03-05T01:11:54.684Z,991.56
2019-03-05T01:12:54.702Z,991.49
2019-03-05T01:13:54.717Z,991.62
2019-03-05T01:14:54.732Z,991.47
2019-03-05T01:15:54.753Z,991.55
2019-03-05T01:16:54.765Z,991.35
2019-03-05T01:17:54.782Z,991.51
2019-03-05T01:18:54.796Z,991.44
2019-03-05T01:19:54.813Z,991.52
2019-03-05T01:20:54.829Z,991.51
2019-03-05T01:21:54.845Z,991.43
2019-03-05T01:22:54.861Z,991.46
2019-03-05T01:23:54.879Z,991.45
2019-03-05T01:24:54.948Z,991.41
2019-03-05T01:25:54.908Z,991.44
2019-03-05T01:26:54.924Z,991.38
2019-03-05T01:27:54.941Z,991.4
2019-03-05T01:28:54.962Z,991.46
2019-03-05T01:29:54.972Z,991.42
2019-03-05T01:30:54.989Z,991.44
2019-03-05T01:31:55.007Z,991.37
2019-03-05T01:32:55.023Z,991.41
2019-03-05T01:34:55.053Z,991.55
2019-03-05T01:35:55.071Z,991.46
2019-03-05T01:36:55.085Z,991.43
2019-03-05T01:37:55.101Z,991.53
2019-03-05T01:38:55.121Z,991.45
2019-03-05T01:39:55.133Z,991.55
2019-03-05T01:40:55.152Z,991.44
2019-03-05T01:41:55.165Z,991.45
2019-03-05T01:42:55.181Z,991.39
2019-03-05T01:43:55.197Z,991.43
2019-03-05T01:44:55.213Z,991.43
2019-03-05T01:45:55.229Z,991.43
2019-03-05T01:46:55.246Z,991.36
2019-03-05T01:47:55.260Z,991.45
2019-03-05T01:48:55.277Z,991.48
2019-03-05T01:50:55.313Z,991.41
2019-03-05T01:51:55.324Z,991.49
2019-03-05T01:52:55.340Z,991.47
2019-03-05T01:53:55.357Z,991.47
2019-03-05T01:54:55.371Z,991.47
2019-03-05T01:55:55.388Z,991.46
2019-03-05T01:56:55.404Z,991.55
2019-03-05T01:57:55.420Z,991.5
2019-03-05T01:58:55.436Z,991.53
2019-03-05T01:59:55.451Z,991.58
2019-03-05T02:00:55.468Z,991.58
2019-03-05T02:01:55.484Z,991.59
2019-03-05T02:02:55.499Z,991.58
2019-03-05T02:03:55.515Z,991.52
2019-03-05T02:04:55.531Z,991.55
2019-03-05T02:06:55.561Z,991.61
2019-03-05T02:07:55.578Z,991.64
2019-03-05T02:08:55.594Z,991.63
2019-03-05T02:09:55.609Z,991.72
2019-03-05T02:10:55.625Z,991.7
2019-03-05T02:11:55.641Z,991.72
2019-03-05T02:12:55.656Z,991.68
2019-03-05T02:13:55.674Z,991.68
2019-03-05T02:14:55.688Z,991.68
2019-03-05T02:15:55.704Z,991.62
2019-03-05T02:16:55.720Z,991.74
2019-03-05T02:17:55.734Z,991.78
2019-03-05T02:18:55.751Z,991.82
2019-03-05T02:19:55.767Z,991.74
2019-03-05T02:20:55.782Z,991.68
2019-03-05T02:22:55.813Z,991.73
2019-03-05T02:23:55.830Z,991.81
2019-03-05T02:24:55.844Z,991.79
2019-03-05T02:25:55.913Z,991.8
2019-03-05T02:26:55.876Z,991.75
2019-03-05T02:27:55.891Z,991.74
2019-03-05T02:28:55.907Z,991.68
2019-03-05T02:29:55.923Z,991.85
2019-03-05T02:30:55.940Z,991.77
2019-03-05T02:31:55.954Z,991.8
2019-03-05T02:32:55.969Z,991.74
2019-03-05T02:33:55.986Z,991.82
2019-03-05T02:34:56.001Z,991.71
2019-03-05T02:35:56.021Z,991.82
2019-03-05T02:37:56.049Z,991.76
2019-03-05T02:38:56.065Z,991.72
2019-03-05T02:39:56.082Z,991.74
2019-03-05T02:40:56.096Z,991.71
2019-03-05T02:41:56.113Z,991.74
2019-03-05T02:42:56.128Z,991.67
2019-03-05T02:43:56.143Z,991.75
2019-03-05T02:44:56.160Z,991.75
2019-03-05T02:45:56.174Z,991.71
2019-03-05T02:46:56.191Z,991.82
2019-03-05T02:47:56.206Z,991.78
2019-03-05T02:48:56.223Z,991.83
2019-03-05T02:49:56.237Z,991.79
2019-03-05T02:50:56.253Z,991.78
2019-03-05T02:51:56.275Z,991.8
2019-03-05T02:52:56.285Z,991.8
2019-03-05T02:53:56.299Z,991.76
2019-03-05T02:54:56.316Z,991.82
2019-03-05T02:55:56.333Z,991.84
2019-03-05T02:56:56.346Z,991.9
2019-03-05T02:57:56.362Z,991.8
2019-03-05T02:58:56.378Z,991.76
2019-03-05T02:59:56.406Z,991.86
2019-03-05T03:00:56.408Z,991.87
2019-03-05T03:01:56.427Z,991.78
2019-03-05T03:02:56.440Z,991.78
2019-03-05T03:03:56.464Z,991.83
2019-03-05T03:04:56.470Z,991.78
2019-03-05T03:05:56.486Z,991.89
2019-03-05T03:06:56.504Z,991.88
2019-03-05T03:07:56.518Z,991.84
2019-03-05T03:09:56.550Z,991.81
2019-03-05T03:10:56.565Z,991.79
2019-03-05T03:11:56.579Z,991.86
2019-03-05T03:12:56.598Z,991.82
2019-03-05T03:13:56.611Z,991.86
2019-03-05T03:14:56.627Z,991.85
2019-03-05T03:15:56.642Z,991.85
2019-03-05T03:16:56.661Z,991.84
2019-03-05T03:17:56.674Z,991.81
2019-03-05T03:18:56.689Z,991.87
2019-03-05T03:19:56.704Z,991.83
2019-03-05T03:20:56.721Z,991.86
2019-03-05T03:21:56.735Z,991.82
2019-03-05T03:22:56.751Z,991.9
2019-03-05T03:23:56.766Z,991.92
2019-03-05T03:25:56.803Z,991.85
2019-03-05T03:26:56.814Z,991.85
2019-03-05T03:27:56.834Z,991.85
2019-03-05T03:28:56.845Z,991.87
2019-03-05T03:29:56.861Z,991.88
2019-03-05T03:30:56.876Z,991.86
2019-03-05T03:31:56.899Z,991.86
2019-03-05T03:32:56.908Z,991.89
2019-03-05T03:33:56.922Z,991.81
2019-03-05T03:34:56.940Z,991.83
2019-03-05T03:35:56.954Z,991.86
2019-03-05T03:36:56.970Z,991.77
2019-03-05T03:37:56.985Z,991.9
2019-03-05T03:38:57.000Z,991.9
2019-03-05T03:39:57.019Z,991.91
2019-03-05T03:41:57.047Z,992.01
2019-03-05T03:42:57.064Z,991.97
2019-03-05T03:43:57.081Z,991.86
2019-03-05T03:44:57.094Z,991.94
2019-03-05T03:45:57.109Z,991.88
2019-03-05T03:46:57.134Z,991.97
2019-03-05T03:47:57.146Z,991.94
2019-03-05T03:48:57.156Z,992.02
2019-03-05T03:49:57.173Z,992.02
2019-03-05T03:50:57.187Z,992
2019-03-05T03:51:57.203Z,991.94
2019-03-05T03:52:57.223Z,991.93
2019-03-05T03:53:57.236Z,991.97
2019-03-05T03:54:57.251Z,991.94
2019-03-05T03:55:57.265Z,992.02
2019-03-05T03:57:57.304Z,992.05
2019-03-05T03:58:57.317Z,992.06
2019-03-05T03:59:57.328Z,992.02
2019-03-05T04:00:57.345Z,991.97
2019-03-05T04:01:57.363Z,992.06
2019-03-05T04:02:57.391Z,992.02
2019-03-05T04:03:57.494Z,992.1
2019-03-05T04:04:57.408Z,992.12
2019-03-05T04:05:57.423Z,992.19
2019-03-05T04:06:57.438Z,992.08
2019-03-05T04:07:57.454Z,992.13
2019-03-05T04:08:57.494Z,992.17
2019-03-05T04:09:57.486Z,992.21
2019-03-05T04:10:57.502Z,992.22
2019-03-05T04:12:57.535Z,992.19
2019-03-05T04:13:59.609Z,992.2
2019-03-05T04:14:57.566Z,992.21
2019-03-05T04:15:57.582Z,992.18
2019-03-05T04:16:57.612Z,992.16
2019-03-05T04:17:57.621Z,992.3
2019-03-05T04:18:57.630Z,992.1
2019-03-05T04:19:57.645Z,992.26
2019-03-05T04:20:57.660Z,992.22
2019-03-05T04:21:57.681Z,992.2
2019-03-05T04:22:57.693Z,992.27
2019-03-05T04:23:57.707Z,992.28
2019-03-05T04:24:57.721Z,992.2
2019-03-05T04:25:57.741Z,992.2
2019-03-05T04:26:57.754Z,992.3
2019-03-05T04:27:57.771Z,992.18
2019-03-05T04:28:57.786Z,992.17
2019-03-05T04:29:57.801Z,992.17
2019-03-05T04:30:57.817Z,992.3
2019-03-05T04:31:57.832Z,992.11
2019-03-05T04:32:57.849Z,992.18
2019-03-05T04:33:57.865Z,992.22
2019-03-05T04:34:57.881Z,992.26
2019-03-05T04:35:57.895Z,992.17
2019-03-05T04:36:57.912Z,992.3
2019-03-05T04:37:57.928Z,992.24
2019-03-05T04:38:57.938Z,992.26
2019-03-05T04:39:57.953Z,992.28
2019-03-05T04:40:57.968Z,992.28
2019-03-05T04:41:57.984Z,992.34
2019-03-05T04:42:58.000Z,992.32
2019-03-05T04:44:58.032Z,992.37
2019-03-05T04:45:58.048Z,992.22
2019-03-05T04:46:58.063Z,992.38
2019-03-05T04:47:58.080Z,992.33
2019-03-05T04:48:58.095Z,992.33
2019-03-05T04:49:58.111Z,992.39
2019-03-05T04:50:58.126Z,992.39
2019-03-05T04:51:58.142Z,992.32
2019-03-05T04:52:58.159Z,992.31
2019-03-05T04:53:58.174Z,992.37
2019-03-05T04:54:58.190Z,992.45
2019-03-05T04:55:58.256Z,992.36
2019-03-05T04:56:58.223Z,992.42
2019-03-05T04:57:58.237Z,992.33
2019-03-05T04:58:58.254Z,992.39
2019-03-05T05:00:58.285Z,992.41
2019-03-05T05:01:58.301Z,992.36
2019-03-05T05:02:58.553Z,992.37
2019-03-05T05:03:58.433Z,992.42
2019-03-05T05:04:58.348Z,992.42
2019-03-05T05:05:58.364Z,992.34
2019-03-05T05:06:58.382Z,992.33
2019-03-05T05:07:58.396Z,992.39
2019-03-05T05:08:58.411Z,992.28
2019-03-05T05:09:58.428Z,992.29
2019-03-05T05:10:58.449Z,992.29
2019-03-05T05:11:58.459Z,992.28
2019-03-05T05:12:58.478Z,992.24
2019-03-05T05:13:58.491Z,992.19
2019-03-05T05:14:58.507Z,992.22
2019-03-05T05:16:58.538Z,992.29
2019-03-05T05:17:58.554Z,992.39
2019-03-05T05:18:58.570Z,992.28
2019-03-05T05:19:58.584Z,992.43
2019-03-05T05:20:58.601Z,992.46
2019-03-05T05:21:58.617Z,992.4
2019-03-05T05:22:58.633Z,992.47
2019-03-05T05:23:58.648Z,992.57
2019-03-05T05:24:58.664Z,992.36
2019-03-05T05:25:58.680Z,992.41
2019-03-05T05:26:58.695Z,992.53
2019-03-05T05:27:58.711Z,992.64
2019-03-05T05:28:58.732Z,992.51
2019-03-05T05:29:58.743Z,992.74
2019-03-05T05:30:58.760Z,992.63
2019-03-05T05:32:58.796Z,992.66
2019-03-05T05:33:58.806Z,992.64
2019-03-05T05:34:58.822Z,992.64
2019-03-05T05:35:58.838Z,992.88
2019-03-05T05:36:58.854Z,992.66
2019-03-05T05:37:58.870Z,992.65
2019-03-05T05:38:58.885Z,992.64
2019-03-05T05:39:58.904Z,992.73
2019-03-05T05:40:58.917Z,992.75
2019-03-05T05:41:58.933Z,992.68
2019-03-05T05:42:58.948Z,992.86
2019-03-05T05:43:58.964Z,992.68
2019-03-05T05:44:58.981Z,992.93
2019-03-05T05:45:58.999Z,993.01
2019-03-05T05:47:59.028Z,992.86
2019-03-05T05:48:59.043Z,992.7
2019-03-05T05:49:59.059Z,992.91
2019-03-05T05:50:59.075Z,992.78
2019-03-05T05:51:59.091Z,992.83
2019-03-05T05:52:59.108Z,992.96
2019-03-05T05:53:59.123Z,992.87
2019-03-05T05:54:59.138Z,993.02
2019-03-05T05:55:59.153Z,992.98
2019-03-05T05:56:59.169Z,993.05
2019-03-05T05:57:59.186Z,993.06
2019-03-05T05:58:59.201Z,993.07
2019-03-05T05:59:59.217Z,993.03
2019-03-05T06:00:59.297Z,993.16
2019-03-05T06:01:59.248Z,993.14
2019-03-05T06:02:59.271Z,993.13
2019-03-05T06:03:59.279Z,993.13
2019-03-05T06:04:59.295Z,993.23
2019-03-05T06:05:59.311Z,993.28
2019-03-05T06:06:59.326Z,993.22
2019-03-05T06:07:59.343Z,993.29
2019-03-05T06:08:59.359Z,993.37
2019-03-05T06:09:59.375Z,993.23
2019-03-05T06:10:59.389Z,993.22
2019-03-05T06:11:59.406Z,993.22
2019-03-05T06:12:59.424Z,993.3
2019-03-05T06:13:59.438Z,993.03
2019-03-05T06:14:59.453Z,993.23
2019-03-05T06:15:59.469Z,993.42
2019-03-05T06:16:59.485Z,993.41
2019-03-05T06:17:59.500Z,993.36
2019-03-05T06:19:59.532Z,993.35
2019-03-05T06:20:59.549Z,993.32
2019-03-05T06:21:59.564Z,993.48
2019-03-05T06:22:59.580Z,993.43
2019-03-05T06:23:59.596Z,993.48
2019-03-05T06:24:59.612Z,993.49
2019-03-05T06:25:59.628Z,993.45
2019-03-05T06:26:59.643Z,993.58
2019-03-05T06:27:59.659Z,993.44
2019-03-05T06:28:59.675Z,993.45
2019-03-05T06:29:59.691Z,993.48
2019-03-05T06:30:59.709Z,993.52
2019-03-05T06:31:59.724Z,993.57
2019-03-05T06:32:59.745Z,993.59
2019-03-05T06:33:59.761Z,993.55
2019-03-05T06:35:59.793Z,993.67
2019-03-05T06:36:59.808Z,993.7
2019-03-05T06:37:59.824Z,993.71
2019-03-05T06:38:59.840Z,993.81
2019-03-05T06:39:59.855Z,993.65
2019-03-05T06:40:59.873Z,993.78
2019-03-05T06:41:59.891Z,993.78
2019-03-05T06:42:59.904Z,993.89
2019-03-05T06:43:59.920Z,993.77
2019-03-05T06:44:59.936Z,993.82
2019-03-05T06:45:59.956Z,993.89
2019-03-05T06:46:59.970Z,993.91
2019-03-05T06:47:59.985Z,993.95
2019-03-05T06:49:00.000Z,993.9
2019-03-05T06:50:00.016Z,993.89
2019-03-05T06:52:00.047Z,994.02
2019-03-05T06:53:00.064Z,993.96
2019-03-05T06:54:00.080Z,994.05
2019-03-05T06:55:00.096Z,993.99
2019-03-05T06:56:00.111Z,993.99
2019-03-05T06:57:00.130Z,994.1
2019-03-05T06:58:00.144Z,994.1
2019-03-05T06:59:00.159Z,994
2019-03-05T07:00:00.370Z,994.05
2019-03-05T07:01:00.192Z,993.89
2019-03-05T07:02:00.207Z,994.02
2019-03-05T07:03:00.224Z,994.06
2019-03-05T07:04:00.243Z,994.08
2019-03-05T07:05:00.337Z,994.07
2019-03-05T07:06:00.272Z,994.03
2019-03-05T07:08:00.304Z,994.18
2019-03-05T07:09:00.321Z,994.08
2019-03-05T07:10:00.430Z,994.14
2019-03-05T07:11:00.353Z,994.01
2019-03-05T07:12:00.371Z,994.07
2019-03-05T07:13:00.386Z,994.08
2019-03-05T07:14:00.401Z,994.09
2019-03-05T07:15:00.419Z,994.1
2019-03-05T07:16:00.434Z,994.08
2019-03-05T07:17:00.452Z,994.11
2019-03-05T07:18:00.466Z,994.13
2019-03-05T07:19:00.483Z,994.18
2019-03-05T07:20:00.520Z,994.09
2019-03-05T07:21:00.517Z,994.18
2019-03-05T07:23:00.550Z,994.26
2019-03-05T07:24:00.566Z,994.17
2019-03-05T07:25:00.583Z,994.2
2019-03-05T07:26:00.600Z,994.19
2019-03-05T07:27:00.617Z,994.22
2019-03-05T07:28:00.634Z,994.11
2019-03-05T07:29:00.651Z,994.32
2019-03-05T07:30:00.747Z,994.27
2019-03-05T07:31:00.685Z,994.42
2019-03-05T07:32:00.702Z,994.49
2019-03-05T07:33:00.719Z,994.43
2019-03-05T07:34:00.737Z,994.39
2019-03-05T07:35:00.754Z,994.35
2019-03-05T07:36:00.773Z,994.43
2019-03-05T07:37:00.791Z,994.38
2019-03-05T07:38:00.815Z,994.36
2019-03-05T07:39:00.828Z,994.56
2019-03-05T07:40:00.848Z,994.6
2019-03-05T07:41:00.866Z,994.55
2019-03-05T07:42:00.885Z,994.64
2019-03-05T07:43:00.907Z,994.44
2019-03-05T07:44:00.926Z,994.51
2019-03-05T07:45:00.948Z,994.32
2019-03-05T07:46:00.964Z,994.37
2019-03-05T07:47:00.985Z,994.36
2019-03-05T07:48:01.004Z,994.43
2019-03-05T07:49:01.027Z,994.42
2019-03-05T07:50:01.046Z,994.36
2019-03-05T07:51:01.064Z,994.36
2019-03-05T07:52:01.084Z,994.33
2019-03-05T07:53:01.103Z,994.39
2019-03-05T07:55:12.885Z,994.34
2019-03-05T07:56:01.163Z,994.37
2019-03-05T07:57:01.182Z,994.35
2019-03-05T07:58:01.202Z,994.49
2019-03-05T07:59:01.223Z,994.47
2019-03-05T08:00:01.265Z,994.73
2019-03-05T08:01:01.260Z,994.44
2019-03-05T08:02:01.280Z,994.45
2019-03-05T08:03:01.299Z,994.48
2019-03-05T08:04:01.322Z,994.55
2019-03-05T08:05:01.337Z,994.56
2019-03-05T08:06:01.358Z,994.68
2019-03-05T08:07:01.376Z,994.57
2019-03-05T08:08:01.394Z,994.68
2019-03-05T08:09:01.414Z,994.67
2019-03-05T08:11:01.453Z,994.64
2019-03-05T08:12:01.471Z,994.72
2019-03-05T08:13:01.491Z,994.66
2019-03-05T08:14:01.513Z,994.69
2019-03-05T08:15:01.544Z,994.74
2019-03-05T08:16:02.609Z,994.89
2019-03-05T08:17:01.567Z,994.71
2019-03-05T08:18:01.587Z,994.78
2019-03-05T08:19:01.608Z,994.69
2019-03-05T08:20:01.624Z,994.8
2019-03-05T08:21:01.643Z,994.81
2019-03-05T08:22:01.662Z,994.85
2019-03-05T08:23:01.680Z,994.87
2019-03-05T08:24:01.701Z,994.94
2019-03-05T08:25:01.728Z,994.86
2019-03-05T08:27:01.754Z,994.93
2019-03-05T08:28:01.773Z,994.89
2019-03-05T08:29:02.915Z,994.93
2019-03-05T08:30:13.420Z,995.01
2019-03-05T08:31:01.827Z,994.95
2019-03-05T08:32:01.845Z,994.95
2019-03-05T08:33:01.863Z,995.01
2019-03-05T08:34:01.881Z,994.89
2019-03-05T08:35:01.907Z,994.94
2019-03-05T08:36:01.917Z,994.96
2019-03-05T08:37:01.934Z,994.96
2019-03-05T08:38:01.952Z,995.01
2019-03-05T08:39:01.971Z,994.96
2019-03-05T08:40:01.989Z,994.86
2019-03-05T08:41:02.070Z,994.93
2019-03-05T08:43:02.043Z,995.1
2019-03-05T08:44:02.061Z,995.16
2019-03-05T08:45:02.080Z,995.15
2019-03-05T08:46:02.098Z,995.08
2019-03-05T08:47:02.116Z,995.11
2019-03-05T08:48:02.132Z,995.05
2019-03-05T08:49:02.150Z,995.13
2019-03-05T08:50:02.181Z,995.09
2019-03-05T08:51:02.196Z,995.14
2019-03-05T08:52:02.205Z,995.23
2019-03-05T08:53:02.223Z,995.26
2019-03-05T08:54:02.242Z,995.28
2019-03-05T08:55:02.262Z,995.32
2019-03-05T08:56:02.279Z,995.28
2019-03-05T08:58:02.322Z,995.31
2019-03-05T08:59:02.336Z,995.37
2019-03-05T09:00:02.355Z,995.31
2019-03-05T09:01:02.374Z,995.26
2019-03-05T09:02:02.394Z,995.25
2019-03-05T09:03:02.413Z,995.24
2019-03-05T09:04:02.432Z,995.26
2019-03-05T09:05:02.451Z,995.29
2019-03-05T09:06:02.470Z,995.4
2019-03-05T09:07:02.490Z,995.48
2019-03-05T09:08:02.509Z,995.29
2019-03-05T09:09:02.530Z,995.36
2019-03-05T09:10:02.548Z,995.41
2019-03-05T09:11:02.569Z,995.26
2019-03-05T09:12:02.627Z,995.4
2019-03-05T09:13:02.608Z,995.39
2019-03-05T09:14:02.628Z,995.25
2019-03-05T09:15:02.648Z,995.43
2019-03-05T09:16:02.668Z,995.49
2019-03-05T09:17:02.687Z,995.43
2019-03-05T09:18:02.716Z,995.42
2019-03-05T09:19:02.728Z,995.47
2019-03-05T09:20:02.748Z,995.48
2019-03-05T09:21:02.767Z,995.45
2019-03-05T09:22:02.788Z,995.48
2019-03-05T09:23:02.808Z,995.46
2019-03-05T09:24:02.830Z,995.55
2019-03-05T09:25:02.846Z,995.47
2019-03-05T09:26:02.867Z,995.51
2019-03-05T09:27:02.886Z,995.6
2019-03-05T09:28:02.905Z,995.42
2019-03-05T09:30:02.944Z,995.57
2019-03-05T09:31:02.963Z,995.49
2019-03-05T09:32:02.983Z,995.47
2019-03-05T09:33:03.003Z,995.57
2019-03-05T09:34:03.021Z,995.47
2019-03-05T09:35:03.039Z,995.57
2019-03-05T09:36:03.058Z,995.46
2019-03-05T09:37:03.076Z,995.61
2019-03-05T09:38:03.096Z,995.53
2019-03-05T09:39:03.308Z,995.6
2019-03-05T09:40:03.138Z,995.52
2019-03-05T09:41:03.165Z,995.63
2019-03-05T09:42:03.171Z,995.68
2019-03-05T09:43:03.190Z,995.71
2019-03-05T09:44:03.209Z,995.94
2019-03-05T09:46:03.347Z,995.73
2019-03-05T09:47:03.264Z,995.82
2019-03-05T09:48:03.283Z,995.71
2019-03-05T09:49:03.302Z,995.75
2019-03-05T09:50:03.322Z,995.81
2019-03-05T09:51:03.339Z,995.85
2019-03-05T09:52:03.362Z,995.72
2019-03-05T09:53:03.376Z,995.86
2019-03-05T09:54:03.395Z,995.89
2019-03-05T09:55:03.416Z,995.85
2019-03-05T09:56:03.430Z,995.93
2019-03-05T09:57:03.449Z,995.92
2019-03-05T09:58:07.849Z,995.99
2019-03-05T09:59:03.485Z,995.88
2019-03-05T10:00:03.504Z,995.91
2019-03-05T10:02:03.539Z,996.06
2019-03-05T10:03:03.558Z,996.08
2019-03-05T10:04:03.579Z,996.15
2019-03-05T10:05:03.596Z,996.05
2019-03-05T10:06:03.612Z,996.14
2019-03-05T10:07:03.631Z,996.25
2019-03-05T10:08:03.648Z,996.16
2019-03-05T10:09:03.674Z,996.32
2019-03-05T10:10:03.684Z,996.26
2019-03-05T10:11:03.702Z,996.22
2019-03-05T10:12:03.721Z,996.24
2019-03-05T10:13:04.476Z,996.27
2019-03-05T10:14:03.758Z,996.24
2019-03-05T10:15:03.775Z,996.28
2019-03-05T10:16:03.795Z,996.19
2019-03-05T10:18:12.040Z,996.38
2019-03-05T10:19:04.488Z,996.2
2019-03-05T10:20:03.867Z,996.28
2019-03-05T10:21:03.890Z,996.42
2019-03-05T10:22:03.904Z,996.28
2019-03-05T10:23:03.938Z,996.37
2019-03-05T10:24:10.290Z,996.38
2019-03-05T10:25:06.065Z,996.36
2019-03-05T10:26:03.980Z,996.33
2019-03-05T10:27:04.011Z,996.29
2019-03-05T10:28:04.016Z,996.33
2019-03-05T10:29:04.035Z,996.36
2019-03-05T10:30:04.053Z,996.39
2019-03-05T10:31:04.073Z,996.32
2019-03-05T10:33:04.111Z,996.36
2019-03-05T10:34:04.135Z,996.45
2019-03-05T10:35:04.148Z,996.54
2019-03-05T10:36:04.170Z,996.46
2019-03-05T10:37:12.288Z,996.4
2019-03-05T10:38:04.205Z,996.43
2019-03-05T10:39:04.225Z,996.48
2019-03-05T10:40:04.244Z,996.45
2019-03-05T10:41:04.262Z,996.36
2019-03-05T10:42:04.282Z,996.45
2019-03-05T10:43:08.269Z,996.54
2019-03-05T10:44:04.321Z,996.37
2019-03-05T10:45:04.340Z,996.49
2019-03-05T10:46:04.358Z,996.4
2019-03-05T10:47:04.378Z,996.48
2019-03-05T10:48:04.398Z,996.55
2019-03-05T10:49:04.415Z,996.46
2019-03-05T10:50:14.799Z,996.51
2019-03-05T10:51:04.460Z,996.48
2019-03-05T10:52:04.473Z,996.46
2019-03-05T10:53:04.542Z,996.32
2019-03-05T10:54:04.512Z,996.46
2019-03-05T10:55:04.531Z,996.42
2019-03-05T10:56:04.553Z,996.45
2019-03-05T10:57:04.568Z,996.32
2019-03-05T10:58:04.588Z,996.39
2019-03-05T10:59:05.483Z,996.55
2019-03-05T11:00:04.625Z,996.48
2019-03-05T11:01:04.651Z,996.54
2019-03-05T11:02:04.665Z,996.6
2019-03-05T11:03:04.686Z,996.51
2019-03-05T11:05:04.722Z,996.48
2019-03-05T11:06:04.746Z,996.51
2019-03-05T11:07:04.758Z,996.46
2019-03-05T11:08:04.779Z,996.51
2019-03-05T11:09:04.799Z,996.49
2019-03-05T11:10:04.817Z,996.49
2019-03-05T11:11:12.906Z,996.61
2019-03-05T11:12:04.856Z,996.55
2019-03-05T11:13:04.874Z,996.44
2019-03-05T11:14:04.943Z,996.61
2019-03-05T11:15:04.912Z,996.46
2019-03-05T11:16:04.931Z,996.39
2019-03-05T11:17:04.951Z,996.47
2019-03-05T11:18:04.969Z,996.51
2019-03-05T11:19:04.989Z,996.45
2019-03-05T11:21:05.026Z,996.44
2019-03-05T11:22:05.047Z,996.41
2019-03-05T11:23:05.067Z,996.41
2019-03-05T11:24:05.086Z,996.46
2019-03-05T11:25:05.100Z,996.53
2019-03-05T11:26:05.119Z,996.54
2019-03-05T11:27:05.139Z,996.59
2019-03-05T11:28:05.160Z,996.55
2019-03-05T11:29:05.179Z,996.51
2019-03-05T11:30:05.194Z,996.51
2019-03-05T11:31:05.213Z,996.5
2019-03-05T11:32:05.231Z,996.57
2019-03-05T11:33:05.258Z,996.57
2019-03-05T11:34:05.269Z,996.5
2019-03-05T11:35:05.288Z,996.54
2019-03-05T11:37:05.327Z,996.69
2019-03-05T11:38:05.343Z,996.54
2019-03-05T11:39:05.361Z,996.63
2019-03-05T11:40:05.380Z,996.63
2019-03-05T11:41:05.398Z,996.6
2019-03-05T11:42:05.417Z,996.54
2019-03-05T11:43:05.437Z,996.52
2019-03-05T11:44:05.765Z,996.53
2019-03-05T11:45:07.710Z,996.61
2019-03-05T11:46:05.492Z,996.52
2019-03-05T11:47:05.513Z,996.53
2019-03-05T11:48:05.530Z,996.55
2019-03-05T11:49:05.549Z,996.55
2019-03-05T11:50:05.568Z,996.57
2019-03-05T11:51:05.586Z,996.52
2019-03-05T11:53:05.624Z,996.57
2019-03-05T11:54:05.642Z,996.53
2019-03-05T11:55:05.660Z,996.51
2019-03-05T11:56:05.679Z,996.46
2019-03-05T11:57:05.698Z,996.47
2019-03-05T11:58:05.715Z,996.64
2019-03-05T11:59:05.734Z,996.47
2019-03-05T12:00:05.753Z,996.52
2019-03-05T12:01:05.772Z,996.58
2019-03-05T12:02:05.790Z,996.57
2019-03-05T12:03:05.809Z,996.51
2019-03-05T12:04:05.828Z,996.46
2019-03-05T12:05:05.847Z,996.57
2019-03-05T12:06:05.866Z,996.54
2019-03-05T12:08:05.903Z,996.52
2019-03-05T12:09:05.921Z,996.53
2019-03-05T12:10:05.940Z,996.62
2019-03-05T12:11:05.959Z,996.55
2019-03-05T12:12:05.977Z,996.55
2019-03-05T12:13:05.995Z,996.71
2019-03-05T12:14:06.016Z,996.73
2019-03-05T12:15:06.032Z,996.82
2019-03-05T12:16:06.050Z,996.82
2019-03-05T12:17:06.068Z,996.71
2019-03-05T12:18:06.087Z,996.84
2019-03-05T12:19:06.107Z,996.76
2019-03-05T12:20:06.123Z,996.76
2019-03-05T12:21:06.141Z,996.87
2019-03-05T12:22:06.161Z,996.91
2019-03-05T12:23:06.551Z,996.76
2019-03-05T12:24:06.196Z,996.84
2019-03-05T12:25:06.214Z,996.83
2019-03-05T12:26:06.234Z,996.87
2019-03-05T12:27:06.252Z,996.78
2019-03-05T12:28:10.042Z,996.78
2019-03-05T12:29:06.288Z,996.83
2019-03-05T12:30:06.307Z,996.8
2019-03-05T12:31:06.324Z,996.72
2019-03-05T12:32:06.344Z,996.8
2019-03-05T12:33:06.728Z,996.79
2019-03-05T12:34:06.381Z,996.84
2019-03-05T12:35:06.397Z,996.72
2019-03-05T12:36:06.416Z,996.78
2019-03-05T12:37:06.435Z,996.79
2019-03-05T12:38:06.455Z,996.78
2019-03-05T12:40:06.491Z,996.79
2019-03-05T12:41:06.510Z,996.76
2019-03-05T12:42:06.526Z,996.77
2019-03-05T12:43:06.546Z,996.73
2019-03-05T12:44:06.565Z,996.77
2019-03-05T12:45:06.583Z,996.76
2019-03-05T12:46:06.601Z,996.79
2019-03-05T12:47:06.620Z,996.84
2019-03-05T12:48:06.638Z,996.77
2019-03-05T12:49:06.656Z,996.72
2019-03-05T12:50:06.675Z,996.68
2019-03-05T12:51:06.696Z,996.79
2019-03-05T12:52:06.713Z,996.71
2019-03-05T12:53:06.734Z,996.75
2019-03-05T12:54:06.751Z,996.75
2019-03-05T12:56:06.793Z,996.62
2019-03-05T12:57:06.812Z,996.69
2019-03-05T12:58:06.825Z,996.65
2019-03-05T12:59:06.844Z,996.66
2019-03-05T13:00:06.894Z,996.67
2019-03-05T13:01:06.894Z,996.67
2019-03-05T13:02:06.903Z,996.76
2019-03-05T13:03:06.920Z,996.67
2019-03-05T13:04:06.938Z,996.87
2019-03-05T13:05:06.957Z,996.81
2019-03-05T13:06:06.976Z,996.81
2019-03-05T13:07:07.003Z,996.79
2019-03-05T13:08:07.013Z,996.8
2019-03-05T13:09:07.032Z,996.82
2019-03-05T13:10:07.051Z,996.76
2019-03-05T13:12:07.091Z,996.8
2019-03-05T13:13:10.304Z,996.84